sensor_id;sensor_type;location;lat;lon;timestamp;P1;durP1;ratioP1;P2;durP2;ratioP2
69943;SDS011;57257;48.408;-4.498;2023-08-07T00:00:08;2.75;;;2.75;;
69943;SDS011;57257;48.408;-4.498;2023-08-07T00:02:34;3.50;;;3.00;;
69943;SDS011;57257;48.408;-4.498;2023-08-07T00:05:00;6.25;;;3.25;;
69943;SDS011;57257;48.408;-4.498;2023-08-07T00:07:25;4.50;;;3.50;;
69943;SDS011;57257;48.408;-4.498;2023-08-07T00:09:51;2.25;;;1.50;;
69943;SDS011;57257;48.408;-4.498;2023-08-07T00:12:16;6.00;;;3.50;;
69943;SDS011;57257;48.408;-4.498;2023-08-07T00:14:42;5.00;;;1.50;;
69943;SDS011;57257;48.408;-4.498;2023-08-07T00:17:07;2.75;;;2.75;;
69943;SDS011;57257;48.408;-4.498;2023-08-07T00:19:33;3.50;;;3.00;;
69943;SDS011;57257;48.408;-4.498;2023-08-07T00:21:59;2.50;;;2.50;;
69943;SDS011;57257;48.408;-4.498;2023-08-07T00:24:24;1.75;;;1.75;;
69943;SDS011;57257;48.408;-4.498;2023-08-07T00:26:49;1.75;;;1.75;;
69943;SDS011;57257;48.408;-4.498;2023-08-07T00:29:15;4.00;;;3.00;;
69943;SDS011;57257;48.408;-4.498;2023-08-07T00:31:40;5.00;;;2.00;;
69943;SDS011;57257;48.408;-4.498;2023-08-07T00:34:06;3.25;;;2.00;;
69943;SDS011;57257;48.408;-4.498;2023-08-07T00:36:31;6.50;;;1.50;;
69943;SDS011;57257;48.408;-4.498;2023-08-07T00:38:59;4.50;;;4.50;;
69943;SDS011;57257;48.408;-4.498;2023-08-07T00:41:25;3.25;;;1.00;;
69943;SDS011;57257;48.408;-4.498;2023-08-07T00:43:51;3.50;;;3.50;;
69943;SDS011;57257;48.408;-4.498;2023-08-07T00:46:16;3.50;;;3.50;;
69943;SDS011;57257;48.408;-4.498;2023-08-07T00:48:42;4.00;;;2.75;;
69943;SDS011;57257;48.408;-4.498;2023-08-07T00:51:08;5.75;;;3.50;;
69943;SDS011;57257;48.408;-4.498;2023-08-07T00:53:37;7.00;;;2.75;;
69943;SDS011;57257;48.408;-4.498;2023-08-07T00:56:03;1.75;;;1.75;;
69943;SDS011;57257;48.408;-4.498;2023-08-07T00:58:29;1.75;;;1.25;;
69943;SDS011;57257;48.408;-4.498;2023-08-07T01:00:55;2.75;;;1.50;;
69943;SDS011;57257;48.408;-4.498;2023-08-07T01:03:20;5.00;;;4.25;;
69943;SDS011;57257;48.408;-4.498;2023-08-07T01:05:46;2.00;;;2.00;;
69943;SDS011;57257;48.408;-4.498;2023-08-07T01:08:11;7.50;;;2.00;;
69943;SDS011;57257;48.408;-4.498;2023-08-07T01:13:17;3.00;;;3.00;;
69943;SDS011;57257;48.408;-4.498;2023-08-07T01:15:48;3.75;;;3.75;;
69943;SDS011;57257;48.408;-4.498;2023-08-07T01:18:17;3.75;;;3.75;;
69943;SDS011;57257;48.408;-4.498;2023-08-07T01:20:43;6.00;;;4.50;;
69943;SDS011;57257;48.408;-4.498;2023-08-07T01:23:08;4.00;;;2.75;;
69943;SDS011;57257;48.408;-4.498;2023-08-07T01:25:34;5.25;;;1.00;;
69943;SDS011;57257;48.408;-4.498;2023-08-07T01:28:06;4.00;;;3.25;;
69943;SDS011;57257;48.408;-4.498;2023-08-07T01:30:49;2.25;;;2.00;;
69943;SDS011;57257;48.408;-4.498;2023-08-07T01:35:51;3.50;;;3.50;;
69943;SDS011;57257;48.408;-4.498;2023-08-07T01:38:18;2.75;;;2.75;;
69943;SDS011;57257;48.408;-4.498;2023-08-07T01:40:48;8.00;;;6.00;;
69943;SDS011;57257;48.408;-4.498;2023-08-07T01:43:15;3.75;;;3.00;;
69943;SDS011;57257;48.408;-4.498;2023-08-07T01:45:41;5.50;;;4.00;;
69943;SDS011;57257;48.408;-4.498;2023-08-07T01:48:07;5.25;;;3.50;;
69943;SDS011;57257;48.408;-4.498;2023-08-07T01:50:32;2.25;;;2.25;;
69943;SDS011;57257;48.408;-4.498;2023-08-07T01:52:58;6.50;;;4.75;;
69943;SDS011;57257;48.408;-4.498;2023-08-07T01:55:23;2.25;;;2.25;;
69943;SDS011;57257;48.408;-4.498;2023-08-07T01:57:49;5.00;;;2.50;;
69943;SDS011;57257;48.408;-4.498;2023-08-07T02:00:14;3.00;;;3.00;;
69943;SDS011;57257;48.408;-4.498;2023-08-07T02:02:40;3.50;;;2.25;;
69943;SDS011;57257;48.408;-4.498;2023-08-07T02:05:05;2.25;;;2.25;;
69943;SDS011;57257;48.408;-4.498;2023-08-07T02:07:31;3.00;;;3.00;;
69943;SDS011;57257;48.408;-4.498;2023-08-07T02:09:57;4.25;;;4.25;;
69943;SDS011;57257;48.408;-4.498;2023-08-07T02:12:23;9.00;;;4.25;;
69943;SDS011;57257;48.408;-4.498;2023-08-07T02:14:49;3.75;;;2.00;;
69943;SDS011;57257;48.408;-4.498;2023-08-07T02:17:15;2.00;;;2.00;;
69943;SDS011;57257;48.408;-4.498;2023-08-07T02:19:40;3.00;;;1.75;;
69943;SDS011;57257;48.408;-4.498;2023-08-07T02:22:05;3.50;;;2.00;;
69943;SDS011;57257;48.408;-4.498;2023-08-07T02:24:31;0.50;;;0.50;;
69943;SDS011;57257;48.408;-4.498;2023-08-07T02:26:56;8.00;;;1.75;;
69943;SDS011;57257;48.408;-4.498;2023-08-07T02:29:22;5.75;;;3.00;;
69943;SDS011;57257;48.408;-4.498;2023-08-07T02:31:47;2.75;;;2.75;;
69943;SDS011;57257;48.408;-4.498;2023-08-07T02:34:12;2.25;;;1.25;;
69943;SDS011;57257;48.408;-4.498;2023-08-07T02:36:38;3.00;;;3.00;;
69943;SDS011;57257;48.408;-4.498;2023-08-07T02:39:03;2.25;;;2.25;;
69943;SDS011;57257;48.408;-4.498;2023-08-07T02:41:29;2.00;;;2.00;;
69943;SDS011;57257;48.408;-4.498;2023-08-07T02:43:56;5.00;;;2.25;;
69943;SDS011;57257;48.408;-4.498;2023-08-07T02:46:21;1.75;;;1.75;;
69943;SDS011;57257;48.408;-4.498;2023-08-07T02:48:47;4.50;;;1.75;;
69943;SDS011;57257;48.408;-4.498;2023-08-07T02:51:12;3.75;;;3.75;;
69943;SDS011;57257;48.408;-4.498;2023-08-07T02:53:37;4.75;;;2.00;;
69943;SDS011;57257;48.408;-4.498;2023-08-07T02:56:03;3.25;;;1.25;;
69943;SDS011;57257;48.408;-4.498;2023-08-07T02:58:28;1.25;;;1.25;;
69943;SDS011;57257;48.408;-4.498;2023-08-07T03:00:54;6.25;;;2.00;;
69943;SDS011;57257;48.408;-4.498;2023-08-07T03:03:20;3.75;;;3.75;;
69943;SDS011;57257;48.408;-4.498;2023-08-07T03:09:07;2.00;;;2.00;;
69943;SDS011;57257;48.408;-4.498;2023-08-07T03:11:33;1.50;;;1.50;;
69943;SDS011;57257;48.408;-4.498;2023-08-07T03:13:58;1.25;;;1.25;;
69943;SDS011;57257;48.408;-4.498;2023-08-07T03:16:23;2.50;;;2.50;;
69943;SDS011;57257;48.408;-4.498;2023-08-07T03:18:49;3.00;;;3.00;;
69943;SDS011;57257;48.408;-4.498;2023-08-07T03:21:14;2.50;;;1.25;;
69943;SDS011;57257;48.408;-4.498;2023-08-07T03:23:40;6.75;;;2.75;;
69943;SDS011;57257;48.408;-4.498;2023-08-07T03:26:07;1.50;;;1.50;;
69943;SDS011;57257;48.408;-4.498;2023-08-07T03:28:34;1.25;;;1.25;;
69943;SDS011;57257;48.408;-4.498;2023-08-07T03:31:01;3.25;;;0.50;;
69943;SDS011;57257;48.408;-4.498;2023-08-07T03:33:26;1.00;;;1.00;;
69943;SDS011;57257;48.408;-4.498;2023-08-07T03:35:52;1.50;;;0.50;;
69943;SDS011;57257;48.408;-4.498;2023-08-07T03:38:17;1.25;;;1.25;;
69943;SDS011;57257;48.408;-4.498;2023-08-07T03:40:43;2.00;;;2.00;;
69943;SDS011;57257;48.408;-4.498;2023-08-07T03:43:08;1.75;;;1.00;;
69943;SDS011;57257;48.408;-4.498;2023-08-07T03:45:34;2.00;;;2.00;;
69943;SDS011;57257;48.408;-4.498;2023-08-07T03:47:59;1.00;;;1.00;;
69943;SDS011;57257;48.408;-4.498;2023-08-07T03:50:25;1.25;;;1.25;;
69943;SDS011;57257;48.408;-4.498;2023-08-07T03:52:50;1.25;;;1.25;;
69943;SDS011;57257;48.408;-4.498;2023-08-07T03:55:16;1.00;;;1.00;;
69943;SDS011;57257;48.408;-4.498;2023-08-07T03:57:41;1.00;;;0.75;;
69943;SDS011;57257;48.408;-4.498;2023-08-07T04:00:07;0.75;;;0.75;;
69943;SDS011;57257;48.408;-4.498;2023-08-07T04:02:32;1.50;;;1.25;;
69943;SDS011;57257;48.408;-4.498;2023-08-07T04:04:58;2.00;;;2.00;;
69943;SDS011;57257;48.408;-4.498;2023-08-07T04:07:23;3.25;;;0.75;;
69943;SDS011;57257;48.408;-4.498;2023-08-07T04:09:49;1.00;;;1.00;;
69943;SDS011;57257;48.408;-4.498;2023-08-07T04:12:14;1.00;;;1.00;;
69943;SDS011;57257;48.408;-4.498;2023-08-07T04:14:39;3.25;;;1.50;;
69943;SDS011;57257;48.408;-4.498;2023-08-07T04:17:05;1.75;;;1.25;;
69943;SDS011;57257;48.408;-4.498;2023-08-07T04:19:30;1.00;;;1.00;;
69943;SDS011;57257;48.408;-4.498;2023-08-07T04:21:56;4.00;;;0.00;;
69943;SDS011;57257;48.408;-4.498;2023-08-07T04:24:21;0.00;;;0.00;;
69943;SDS011;57257;48.408;-4.498;2023-08-07T04:26:47;1.75;;;1.75;;
69943;SDS011;57257;48.408;-4.498;2023-08-07T04:29:12;3.25;;;1.00;;
69943;SDS011;57257;48.408;-4.498;2023-08-07T04:31:38;1.25;;;1.25;;
69943;SDS011;57257;48.408;-4.498;2023-08-07T04:34:03;1.25;;;1.25;;
69943;SDS011;57257;48.408;-4.498;2023-08-07T04:36:28;2.75;;;0.50;;
69943;SDS011;57257;48.408;-4.498;2023-08-07T04:38:54;1.25;;;1.25;;
69943;SDS011;57257;48.408;-4.498;2023-08-07T04:41:21;3.75;;;1.00;;
69943;SDS011;57257;48.408;-4.498;2023-08-07T04:43:46;0.25;;;0.25;;
69943;SDS011;57257;48.408;-4.498;2023-08-07T04:46:13;2.00;;;2.00;;
69943;SDS011;57257;48.408;-4.498;2023-08-07T04:48:39;5.25;;;1.50;;
69943;SDS011;57257;48.408;-4.498;2023-08-07T04:51:04;3.25;;;0.75;;
69943;SDS011;57257;48.408;-4.498;2023-08-07T04:53:30;1.25;;;1.00;;
69943;SDS011;57257;48.408;-4.498;2023-08-07T04:55:55;2.75;;;1.75;;
69943;SDS011;57257;48.408;-4.498;2023-08-07T04:58:21;3.50;;;1.75;;
69943;SDS011;57257;48.408;-4.498;2023-08-07T05:00:46;1.00;;;1.00;;
69943;SDS011;57257;48.408;-4.498;2023-08-07T05:03:12;0.50;;;0.50;;
69943;SDS011;57257;48.408;-4.498;2023-08-07T05:05:38;0.50;;;0.50;;
69943;SDS011;57257;48.408;-4.498;2023-08-07T05:08:03;0.50;;;0.50;;
69943;SDS011;57257;48.408;-4.498;2023-08-07T05:10:29;1.00;;;0.50;;
69943;SDS011;57257;48.408;-4.498;2023-08-07T05:12:54;0.25;;;0.25;;
69943;SDS011;57257;48.408;-4.498;2023-08-07T05:15:23;3.00;;;1.00;;
69943;SDS011;57257;48.408;-4.498;2023-08-07T05:17:50;1.25;;;1.25;;
69943;SDS011;57257;48.408;-4.498;2023-08-07T05:20:16;4.00;;;2.00;;
69943;SDS011;57257;48.408;-4.498;2023-08-07T05:22:42;2.25;;;1.00;;
69943;SDS011;57257;48.408;-4.498;2023-08-07T05:25:08;1.50;;;1.50;;
69943;SDS011;57257;48.408;-4.498;2023-08-07T05:27:34;2.00;;;2.00;;
69943;SDS011;57257;48.408;-4.498;2023-08-07T05:30:00;1.00;;;0.50;;
69943;SDS011;57257;48.408;-4.498;2023-08-07T05:32:26;4.75;;;2.75;;
69943;SDS011;57257;48.408;-4.498;2023-08-07T05:34:51;4.00;;;1.25;;
69943;SDS011;57257;48.408;-4.498;2023-08-07T05:37:16;1.75;;;1.75;;
69943;SDS011;57257;48.408;-4.498;2023-08-07T05:39:42;3.75;;;1.00;;
69943;SDS011;57257;48.408;-4.498;2023-08-07T05:42:07;2.50;;;2.50;;
69943;SDS011;57257;48.408;-4.498;2023-08-07T05:44:35;2.25;;;2.25;;
69943;SDS011;57257;48.408;-4.498;2023-08-07T05:47:00;2.00;;;2.00;;
69943;SDS011;57257;48.408;-4.498;2023-08-07T05:49:25;10.25;;;7.25;;
69943;SDS011;57257;48.408;-4.498;2023-08-07T05:51:51;4.75;;;4.00;;
69943;SDS011;57257;48.408;-4.498;2023-08-07T05:54:16;2.75;;;2.75;;
69943;SDS011;57257;48.408;-4.498;2023-08-07T05:56:42;1.50;;;1.50;;
69943;SDS011;57257;48.408;-4.498;2023-08-07T05:59:07;1.00;;;1.00;;
69943;SDS011;57257;48.408;-4.498;2023-08-07T06:01:33;0.25;;;0.25;;
69943;SDS011;57257;48.408;-4.498;2023-08-07T06:03:58;2.00;;;0.25;;
69943;SDS011;57257;48.408;-4.498;2023-08-07T06:06:24;0.00;;;0.00;;
69943;SDS011;57257;48.408;-4.498;2023-08-07T06:08:50;0.25;;;0.25;;
69943;SDS011;57257;48.408;-4.498;2023-08-07T06:11:16;1.00;;;1.00;;
69943;SDS011;57257;48.408;-4.498;2023-08-07T06:13:42;1.00;;;0.50;;
69943;SDS011;57257;48.408;-4.498;2023-08-07T06:16:07;1.00;;;1.00;;
69943;SDS011;57257;48.408;-4.498;2023-08-07T06:18:33;2.00;;;1.00;;
69943;SDS011;57257;48.408;-4.498;2023-08-07T06:20:59;2.00;;;2.00;;
69943;SDS011;57257;48.408;-4.498;2023-08-07T06:23:24;0.00;;;0.00;;
69943;SDS011;57257;48.408;-4.498;2023-08-07T06:25:50;0.50;;;0.50;;
69943;SDS011;57257;48.408;-4.498;2023-08-07T06:28:15;1.50;;;1.50;;
69943;SDS011;57257;48.408;-4.498;2023-08-07T06:30:40;7.00;;;1.00;;
69943;SDS011;57257;48.408;-4.498;2023-08-07T06:33:06;4.00;;;3.00;;
69943;SDS011;57257;48.408;-4.498;2023-08-07T06:35:36;3.25;;;2.50;;
69943;SDS011;57257;48.408;-4.498;2023-08-07T06:38:03;1.25;;;1.25;;
69943;SDS011;57257;48.408;-4.498;2023-08-07T06:40:28;3.50;;;2.50;;
69943;SDS011;57257;48.408;-4.498;2023-08-07T06:42:53;2.00;;;2.00;;
69943;SDS011;57257;48.408;-4.498;2023-08-07T06:45:19;5.50;;;1.00;;
69943;SDS011;57257;48.408;-4.498;2023-08-07T06:47:45;0.25;;;0.25;;
69943;SDS011;57257;48.408;-4.498;2023-08-07T06:50:10;1.00;;;1.00;;
69943;SDS011;57257;48.408;-4.498;2023-08-07T06:52:35;1.00;;;1.00;;
69943;SDS011;57257;48.408;-4.498;2023-08-07T06:55:01;1.50;;;1.50;;
69943;SDS011;57257;48.408;-4.498;2023-08-07T06:57:26;1.50;;;1.00;;
69943;SDS011;57257;48.408;-4.498;2023-08-07T06:59:52;3.75;;;1.50;;
69943;SDS011;57257;48.408;-4.498;2023-08-07T07:02:17;7.75;;;6.25;;
69943;SDS011;57257;48.408;-4.498;2023-08-07T07:04:43;1.00;;;0.50;;
69943;SDS011;57257;48.408;-4.498;2023-08-07T07:07:08;0.75;;;0.00;;
69943;SDS011;57257;48.408;-4.498;2023-08-07T07:09:33;0.75;;;0.75;;
69943;SDS011;57257;48.408;-4.498;2023-08-07T07:11:59;0.25;;;0.25;;
69943;SDS011;57257;48.408;-4.498;2023-08-07T07:14:24;1.00;;;1.00;;
69943;SDS011;57257;48.408;-4.498;2023-08-07T07:16:50;1.00;;;1.00;;
69943;SDS011;57257;48.408;-4.498;2023-08-07T07:19:15;1.00;;;1.00;;
69943;SDS011;57257;48.408;-4.498;2023-08-07T07:21:41;0.75;;;0.00;;
69943;SDS011;57257;48.408;-4.498;2023-08-07T07:24:06;0.75;;;0.75;;
69943;SDS011;57257;48.408;-4.498;2023-08-07T07:26:32;1.00;;;1.00;;
69943;SDS011;57257;48.408;-4.498;2023-08-07T07:28:57;0.00;;;0.00;;
69943;SDS011;57257;48.408;-4.498;2023-08-07T07:31:23;0.00;;;0.00;;
69943;SDS011;57257;48.408;-4.498;2023-08-07T07:33:48;1.00;;;0.00;;
69943;SDS011;57257;48.408;-4.498;2023-08-07T07:36:17;0.00;;;0.00;;
69943;SDS011;57257;48.408;-4.498;2023-08-07T07:38:47;0.50;;;0.00;;
69943;SDS011;57257;48.408;-4.498;2023-08-07T07:41:13;1.00;;;0.00;;
69943;SDS011;57257;48.408;-4.498;2023-08-07T07:43:39;0.50;;;0.50;;
69943;SDS011;57257;48.408;-4.498;2023-08-07T07:46:04;0.75;;;0.75;;
69943;SDS011;57257;48.408;-4.498;2023-08-07T07:48:30;0.75;;;0.75;;
69943;SDS011;57257;48.408;-4.498;2023-08-07T07:50:59;0.00;;;0.00;;
69943;SDS011;57257;48.408;-4.498;2023-08-07T07:53:27;1.50;;;1.00;;
69943;SDS011;57257;48.408;-4.498;2023-08-07T07:55:53;1.00;;;1.00;;
69943;SDS011;57257;48.408;-4.498;2023-08-07T07:58:19;2.00;;;0.75;;
69943;SDS011;57257;48.408;-4.498;2023-08-07T08:00:45;2.00;;;1.00;;
69943;SDS011;57257;48.408;-4.498;2023-08-07T08:03:11;0.00;;;0.00;;
69943;SDS011;57257;48.408;-4.498;2023-08-07T08:05:37;1.50;;;0.75;;
69943;SDS011;57257;48.408;-4.498;2023-08-07T08:08:03;2.25;;;0.25;;
69943;SDS011;57257;48.408;-4.498;2023-08-07T08:10:31;1.75;;;0.00;;
69943;SDS011;57257;48.408;-4.498;2023-08-07T08:12:57;2.25;;;0.00;;
69943;SDS011;57257;48.408;-4.498;2023-08-07T08:15:22;1.00;;;1.00;;
69943;SDS011;57257;48.408;-4.498;2023-08-07T08:17:48;1.00;;;0.00;;
69943;SDS011;57257;48.408;-4.498;2023-08-07T08:20:14;0.00;;;0.00;;
69943;SDS011;57257;48.408;-4.498;2023-08-07T08:22:43;1.00;;;1.00;;
69943;SDS011;57257;48.408;-4.498;2023-08-07T08:25:09;0.50;;;0.50;;
69943;SDS011;57257;48.408;-4.498;2023-08-07T08:27:36;0.00;;;0.00;;
69943;SDS011;57257;48.408;-4.498;2023-08-07T08:30:02;1.00;;;1.00;;
69943;SDS011;57257;48.408;-4.498;2023-08-07T08:32:28;0.00;;;0.00;;
69943;SDS011;57257;48.408;-4.498;2023-08-07T08:34:54;0.25;;;0.25;;
69943;SDS011;57257;48.408;-4.498;2023-08-07T08:37:19;0.00;;;0.00;;
69943;SDS011;57257;48.408;-4.498;2023-08-07T08:39:45;0.00;;;0.00;;
69943;SDS011;57257;48.408;-4.498;2023-08-07T08:42:11;1.00;;;1.00;;
69943;SDS011;57257;48.408;-4.498;2023-08-07T08:44:38;1.50;;;0.50;;
69943;SDS011;57257;48.408;-4.498;2023-08-07T08:47:04;1.50;;;0.75;;
69943;SDS011;57257;48.408;-4.498;2023-08-07T08:49:35;0.00;;;0.00;;
69943;SDS011;57257;48.408;-4.498;2023-08-07T08:52:07;0.25;;;0.25;;
69943;SDS011;57257;48.408;-4.498;2023-08-07T08:54:33;1.00;;;1.00;;
69943;SDS011;57257;48.408;-4.498;2023-08-07T08:56:59;0.00;;;0.00;;
69943;SDS011;57257;48.408;-4.498;2023-08-07T08:59:25;0.25;;;0.25;;
69943;SDS011;57257;48.408;-4.498;2023-08-07T09:01:51;0.00;;;0.00;;
69943;SDS011;57257;48.408;-4.498;2023-08-07T09:04:19;0.00;;;0.00;;
69943;SDS011;57257;48.408;-4.498;2023-08-07T09:06:45;1.00;;;0.25;;
69943;SDS011;57257;48.408;-4.498;2023-08-07T09:09:12;0.00;;;0.00;;
69943;SDS011;57257;48.408;-4.498;2023-08-07T09:11:39;2.00;;;0.50;;
69943;SDS011;57257;48.408;-4.498;2023-08-07T09:14:07;1.00;;;1.00;;
69943;SDS011;57257;48.408;-4.498;2023-08-07T09:16:35;0.50;;;0.00;;
69943;SDS011;57257;48.408;-4.498;2023-08-07T09:19:03;0.75;;;0.75;;
69943;SDS011;57257;48.408;-4.498;2023-08-07T09:21:29;0.00;;;0.00;;
69943;SDS011;57257;48.408;-4.498;2023-08-07T09:23:55;1.00;;;0.00;;
69943;SDS011;57257;48.408;-4.498;2023-08-07T09:26:23;0.50;;;0.00;;
69943;SDS011;57257;48.408;-4.498;2023-08-07T09:28:52;0.00;;;0.00;;
69943;SDS011;57257;48.408;-4.498;2023-08-07T09:31:20;2.00;;;0.00;;
69943;SDS011;57257;48.408;-4.498;2023-08-07T09:33:47;4.25;;;0.00;;
69943;SDS011;57257;48.408;-4.498;2023-08-07T09:36:13;0.75;;;0.75;;
69943;SDS011;57257;48.408;-4.498;2023-08-07T09:38:39;0.00;;;0.00;;
69943;SDS011;57257;48.408;-4.498;2023-08-07T09:41:04;0.00;;;0.00;;
69943;SDS011;57257;48.408;-4.498;2023-08-07T09:43:36;0.00;;;0.00;;
69943;SDS011;57257;48.408;-4.498;2023-08-07T09:46:06;0.00;;;0.00;;
69943;SDS011;57257;48.408;-4.498;2023-08-07T09:48:32;1.25;;;0.50;;
69943;SDS011;57257;48.408;-4.498;2023-08-07T09:51:07;0.00;;;0.00;;
69943;SDS011;57257;48.408;-4.498;2023-08-07T09:53:33;0.00;;;0.00;;
69943;SDS011;57257;48.408;-4.498;2023-08-07T09:55:59;0.00;;;0.00;;
69943;SDS011;57257;48.408;-4.498;2023-08-07T09:58:25;1.00;;;0.00;;
69943;SDS011;57257;48.408;-4.498;2023-08-07T10:00:51;0.00;;;0.00;;
69943;SDS011;57257;48.408;-4.498;2023-08-07T10:03:24;0.00;;;0.00;;
69943;SDS011;57257;48.408;-4.498;2023-08-07T10:05:50;0.50;;;0.00;;
69943;SDS011;57257;48.408;-4.498;2023-08-07T10:08:16;0.00;;;0.00;;
69943;SDS011;57257;48.408;-4.498;2023-08-07T10:10:41;0.00;;;0.00;;
69943;SDS011;57257;48.408;-4.498;2023-08-07T10:13:08;1.00;;;0.00;;
69943;SDS011;57257;48.408;-4.498;2023-08-07T10:15:37;2.00;;;0.00;;
69943;SDS011;57257;48.408;-4.498;2023-08-07T10:18:05;0.00;;;0.00;;
69943;SDS011;57257;48.408;-4.498;2023-08-07T10:20:31;0.00;;;0.00;;
69943;SDS011;57257;48.408;-4.498;2023-08-07T10:23:00;0.00;;;0.00;;
69943;SDS011;57257;48.408;-4.498;2023-08-07T10:25:32;0.75;;;0.00;;
69943;SDS011;57257;48.408;-4.498;2023-08-07T10:27:59;0.00;;;0.00;;
69943;SDS011;57257;48.408;-4.498;2023-08-07T10:30:26;0.00;;;0.00;;
69943;SDS011;57257;48.408;-4.498;2023-08-07T10:32:53;0.00;;;0.00;;
69943;SDS011;57257;48.408;-4.498;2023-08-07T10:35:32;0.00;;;0.00;;
69943;SDS011;57257;48.408;-4.498;2023-08-07T10:38:05;0.00;;;0.00;;
69943;SDS011;57257;48.408;-4.498;2023-08-07T10:40:32;0.75;;;0.50;;
69943;SDS011;57257;48.408;-4.498;2023-08-07T10:42:58;0.00;;;0.00;;
69943;SDS011;57257;48.408;-4.498;2023-08-07T10:45:25;0.00;;;0.00;;
69943;SDS011;57257;48.408;-4.498;2023-08-07T10:50:27;0.00;;;0.00;;
69943;SDS011;57257;48.408;-4.498;2023-08-07T10:52:56;2.00;;;0.00;;
69943;SDS011;57257;48.408;-4.498;2023-08-07T10:55:21;0.00;;;0.00;;
69943;SDS011;57257;48.408;-4.498;2023-08-07T10:57:48;0.00;;;0.00;;
69943;SDS011;57257;48.408;-4.498;2023-08-07T11:00:14;0.00;;;0.00;;
69943;SDS011;57257;48.408;-4.498;2023-08-07T11:02:41;0.00;;;0.00;;
69943;SDS011;57257;48.408;-4.498;2023-08-07T11:05:06;0.00;;;0.00;;
69943;SDS011;57257;48.408;-4.498;2023-08-07T11:07:33;0.00;;;0.00;;
69943;SDS011;57257;48.408;-4.498;2023-08-07T11:09:59;0.00;;;0.00;;
69943;SDS011;57257;48.408;-4.498;2023-08-07T11:12:25;0.00;;;0.00;;
69943;SDS011;57257;48.408;-4.498;2023-08-07T11:14:53;0.00;;;0.00;;
69943;SDS011;57257;48.408;-4.498;2023-08-07T11:17:25;1.00;;;0.00;;
69943;SDS011;57257;48.408;-4.498;2023-08-07T11:19:51;2.00;;;0.00;;
69943;SDS011;57257;48.408;-4.498;2023-08-07T11:22:19;1.00;;;0.25;;
69943;SDS011;57257;48.408;-4.498;2023-08-07T11:24:45;0.00;;;0.00;;
69943;SDS011;57257;48.408;-4.498;2023-08-07T11:27:11;0.75;;;0.75;;
69943;SDS011;57257;48.408;-4.498;2023-08-07T11:29:36;0.75;;;0.75;;
69943;SDS011;57257;48.408;-4.498;2023-08-07T11:32:02;0.25;;;0.25;;
69943;SDS011;57257;48.408;-4.498;2023-08-07T11:34:27;0.00;;;0.00;;
69943;SDS011;57257;48.408;-4.498;2023-08-07T11:36:53;0.00;;;0.00;;
69943;SDS011;57257;48.408;-4.498;2023-08-07T11:39:20;1.00;;;0.00;;
69943;SDS011;57257;48.408;-4.498;2023-08-07T11:41:46;0.00;;;0.00;;
69943;SDS011;57257;48.408;-4.498;2023-08-07T11:44:12;0.00;;;0.00;;
69943;SDS011;57257;48.408;-4.498;2023-08-07T11:46:37;1.00;;;0.00;;
69943;SDS011;57257;48.408;-4.498;2023-08-07T11:49:03;1.00;;;1.00;;
69943;SDS011;57257;48.408;-4.498;2023-08-07T11:51:29;0.00;;;0.00;;
69943;SDS011;57257;48.408;-4.498;2023-08-07T11:53:55;0.50;;;0.00;;
69943;SDS011;57257;48.408;-4.498;2023-08-07T11:56:23;0.50;;;0.00;;
69943;SDS011;57257;48.408;-4.498;2023-08-07T11:58:50;0.75;;;0.00;;
69943;SDS011;57257;48.408;-4.498;2023-08-07T12:01:20;0.50;;;0.50;;
69943;SDS011;57257;48.408;-4.498;2023-08-07T12:06:33;2.00;;;0.75;;
69943;SDS011;57257;48.408;-4.498;2023-08-07T12:09:00;0.75;;;0.00;;
69943;SDS011;57257;48.408;-4.498;2023-08-07T12:11:28;0.00;;;0.00;;
69943;SDS011;57257;48.408;-4.498;2023-08-07T12:13:54;0.00;;;0.00;;
69943;SDS011;57257;48.408;-4.498;2023-08-07T12:16:19;0.00;;;0.00;;
69943;SDS011;57257;48.408;-4.498;2023-08-07T12:18:49;0.00;;;0.00;;
69943;SDS011;57257;48.408;-4.498;2023-08-07T12:21:16;0.00;;;0.00;;
69943;SDS011;57257;48.408;-4.498;2023-08-07T12:23:44;0.00;;;0.00;;
69943;SDS011;57257;48.408;-4.498;2023-08-07T12:26:12;0.75;;;0.00;;
69943;SDS011;57257;48.408;-4.498;2023-08-07T12:28:38;0.00;;;0.00;;
69943;SDS011;57257;48.408;-4.498;2023-08-07T12:31:03;0.00;;;0.00;;
69943;SDS011;57257;48.408;-4.498;2023-08-07T12:33:29;0.00;;;0.00;;
69943;SDS011;57257;48.408;-4.498;2023-08-07T12:35:54;0.00;;;0.00;;
69943;SDS011;57257;48.408;-4.498;2023-08-07T12:38:20;0.00;;;0.00;;
69943;SDS011;57257;48.408;-4.498;2023-08-07T12:40:46;0.00;;;0.00;;
69943;SDS011;57257;48.408;-4.498;2023-08-07T12:43:12;0.00;;;0.00;;
69943;SDS011;57257;48.408;-4.498;2023-08-07T12:45:37;0.25;;;0.00;;
69943;SDS011;57257;48.408;-4.498;2023-08-07T12:48:03;0.00;;;0.00;;
69943;SDS011;57257;48.408;-4.498;2023-08-07T12:50:29;0.00;;;0.00;;
69943;SDS011;57257;48.408;-4.498;2023-08-07T12:52:54;0.00;;;0.00;;
69943;SDS011;57257;48.408;-4.498;2023-08-07T12:55:20;0.00;;;0.00;;
69943;SDS011;57257;48.408;-4.498;2023-08-07T12:57:45;0.50;;;0.50;;
69943;SDS011;57257;48.408;-4.498;2023-08-07T13:00:12;0.00;;;0.00;;
69943;SDS011;57257;48.408;-4.498;2023-08-07T13:02:43;0.00;;;0.00;;
69943;SDS011;57257;48.408;-4.498;2023-08-07T13:05:10;1.00;;;0.00;;
69943;SDS011;57257;48.408;-4.498;2023-08-07T13:07:36;4.00;;;0.00;;
69943;SDS011;57257;48.408;-4.498;2023-08-07T13:10:03;0.00;;;0.00;;
69943;SDS011;57257;48.408;-4.498;2023-08-07T13:12:29;0.00;;;0.00;;
69943;SDS011;57257;48.408;-4.498;2023-08-07T13:14:58;0.00;;;0.00;;
69943;SDS011;57257;48.408;-4.498;2023-08-07T13:17:24;1.00;;;1.00;;
69943;SDS011;57257;48.408;-4.498;2023-08-07T13:19:50;0.00;;;0.00;;
69943;SDS011;57257;48.408;-4.498;2023-08-07T13:22:15;0.00;;;0.00;;
69943;SDS011;57257;48.408;-4.498;2023-08-07T13:24:40;0.00;;;0.00;;
69943;SDS011;57257;48.408;-4.498;2023-08-07T13:27:06;2.00;;;0.00;;
69943;SDS011;57257;48.408;-4.498;2023-08-07T13:29:31;0.00;;;0.00;;
69943;SDS011;57257;48.408;-4.498;2023-08-07T13:31:57;0.00;;;0.00;;
69943;SDS011;57257;48.408;-4.498;2023-08-07T13:34:23;0.00;;;0.00;;
69943;SDS011;57257;48.408;-4.498;2023-08-07T13:36:49;1.00;;;0.00;;
69943;SDS011;57257;48.408;-4.498;2023-08-07T13:39:15;0.00;;;0.00;;
69943;SDS011;57257;48.408;-4.498;2023-08-07T13:41:41;0.00;;;0.00;;
69943;SDS011;57257;48.408;-4.498;2023-08-07T13:44:07;0.00;;;0.00;;
69943;SDS011;57257;48.408;-4.498;2023-08-07T13:46:32;0.00;;;0.00;;
69943;SDS011;57257;48.408;-4.498;2023-08-07T13:48:57;0.00;;;0.00;;
69943;SDS011;57257;48.408;-4.498;2023-08-07T13:51:23;0.00;;;0.00;;
69943;SDS011;57257;48.408;-4.498;2023-08-07T13:53:48;0.00;;;0.00;;
69943;SDS011;57257;48.408;-4.498;2023-08-07T13:56:14;0.00;;;0.00;;
69943;SDS011;57257;48.408;-4.498;2023-08-07T13:58:39;0.00;;;0.00;;
69943;SDS011;57257;48.408;-4.498;2023-08-07T14:01:05;0.00;;;0.00;;
69943;SDS011;57257;48.408;-4.498;2023-08-07T14:03:30;0.00;;;0.00;;
69943;SDS011;57257;48.408;-4.498;2023-08-07T14:05:56;1.00;;;0.00;;
69943;SDS011;57257;48.408;-4.498;2023-08-07T14:08:22;0.00;;;0.00;;
69943;SDS011;57257;48.408;-4.498;2023-08-07T14:10:47;0.00;;;0.00;;
69943;SDS011;57257;48.408;-4.498;2023-08-07T14:13:13;0.00;;;0.00;;
69943;SDS011;57257;48.408;-4.498;2023-08-07T14:15:38;0.00;;;0.00;;
69943;SDS011;57257;48.408;-4.498;2023-08-07T14:18:04;0.00;;;0.00;;
69943;SDS011;57257;48.408;-4.498;2023-08-07T14:20:29;0.00;;;0.00;;
69943;SDS011;57257;48.408;-4.498;2023-08-07T14:22:55;0.00;;;0.00;;
69943;SDS011;57257;48.408;-4.498;2023-08-07T14:25:20;0.25;;;0.00;;
69943;SDS011;57257;48.408;-4.498;2023-08-07T14:27:47;0.00;;;0.00;;
69943;SDS011;57257;48.408;-4.498;2023-08-07T14:30:13;1.25;;;0.00;;
69943;SDS011;57257;48.408;-4.498;2023-08-07T14:32:39;0.00;;;0.00;;
69943;SDS011;57257;48.408;-4.498;2023-08-07T14:35:04;0.00;;;0.00;;
69943;SDS011;57257;48.408;-4.498;2023-08-07T14:37:30;0.00;;;0.00;;
69943;SDS011;57257;48.408;-4.498;2023-08-07T14:39:56;0.00;;;0.00;;